Time;durP1;ratioP1;P1;durP2;ratioP2;P2;SDS_P1;SDS_P2;PMS_P1;PMS_P2;Temp;Humidity;BMP_temperature;BMP_pressure;BME280_temperature;BME280_humidity;BME280_pressure;Samples;Min_cycle;Max_cycle;Signal;HPM_P1;HPM_P2
2023/08/12 00:01:29;;;;;;;7.20;4.53;;;;;;;;;;7360164;19;20017;-74
2023/08/12 00:03:55;;;;;;;7.57;4.53;;;;;;;;;;7369570;19;20066;-75
2023/08/12 00:06:20;;;;;;;8.40;4.77;;;;;;;;;;7369362;19;20770;-74
2023/08/12 00:08:45;;;;;;;8.13;4.70;;;;;;;;;;7364116;19;20078;-76
2023/08/12 00:11:10;;;;;;;9.57;4.47;;;;;;;;;;7369641;19;20007;-75
2023/08/12 00:13:35;;;;;;;8.13;3.80;;;;;;;;;;7346104;19;20012;-75
2023/08/12 00:16:01;;;;;;;9.70;4.43;;;;;;;;;;7368933;19;20431;-75
2023/08/12 00:18:26;;;;;;;7.60;3.80;;;;;;;;;;7366773;19;20020;-75
2023/08/12 00:20:51;;;;;;;6.67;3.73;;;;;;;;;;7369853;19;20483;-76
2023/08/12 00:23:16;;;;;;;7.17;3.47;;;;;;;;;;7365533;19;20299;-75
2023/08/12 00:25:41;;;;;;;6.97;4.00;;;;;;;;;;7367611;19;20032;-76
2023/08/12 00:28:07;;;;;;;9.93;4.30;;;;;;;;;;7364997;19;20483;-75
2023/08/12 00:30:32;;;;;;;9.48;4.40;;;;;;;;;;7364063;19;20038;-75
2023/08/12 00:32:57;;;;;;;7.63;3.90;;;;;;;;;;7368372;19;20030;-76
2023/08/12 00:35:23;;;;;;;6.83;3.73;;;;;;;;;;7367929;19;20878;-75
2023/08/12 00:37:48;;;;;;;7.55;3.97;;;;;;;;;;7365004;19;20102;-76
2023/08/12 00:40:13;;;;;;;7.40;4.17;;;;;;;;;;7369560;19;20004;-74
2023/08/12 00:42:38;;;;;;;6.38;3.67;;;;;;;;;;7363102;19;20424;-74
2023/08/12 00:45:09;;;;;;;8.23;4.55;;;;;;;;;;7363004;19;19991;-76
2023/08/12 00:47:34;;;;;;;8.50;4.70;;;;;;;;;;7365027;19;20077;-75
2023/08/12 00:49:59;;;;;;;10.17;4.80;;;;;;;;;;7368915;19;20575;-76
2023/08/12 00:52:24;;;;;;;8.00;4.63;;;;;;;;;;7366455;19;20311;-75
2023/08/12 00:54:49;;;;;;;8.85;4.80;;;;;;;;;;7366752;19;20251;-75
2023/08/12 00:57:15;;;;;;;7.30;4.88;;;;;;;;;;7340900;19;19991;-76
2023/08/12 00:59:41;;;;;;;8.23;5.43;;;;;;;;;;7362097;19;20085;-76
2023/08/12 01:02:06;;;;;;;7.53;5.05;;;;;;;;;;7360571;19;20404;-76
2023/08/12 01:04:32;;;;;;;7.45;4.50;;;;;;;;;;7364884;19;19998;-76
2023/08/12 01:06:57;;;;;;;8.53;5.00;;;;;;;;;;7360329;19;20412;-76
2023/08/12 01:09:22;;;;;;;9.03;4.93;;;;;;;;;;7366857;19;20282;-77
2023/08/12 01:11:50;;;;;;;9.85;4.88;;;;;;;;;;7358168;19;20568;-75
2023/08/12 01:14:28;;;;;;;8.32;4.63;;;;;;;;;;7362165;19;20481;-75
2023/08/12 01:16:56;;;;;;;7.40;4.43;;;;;;;;;;7367991;19;20067;-75
2023/08/12 01:19:30;;;;;;;7.72;4.20;;;;;;;;;;7368218;19;20006;-77
2023/08/12 01:21:55;;;;;;;6.53;4.00;;;;;;;;;;7366081;19;20035;-75
2023/08/12 01:24:24;;;;;;;6.25;4.20;;;;;;;;;;7361966;19;20010;-75
2023/08/12 01:26:49;;;;;;;7.50;4.63;;;;;;;;;;7352958;19;20009;-76
2023/08/12 01:29:14;;;;;;;7.60;4.40;;;;;;;;;;7369075;19;20027;-75
2023/08/12 01:31:45;;;;;;;7.60;4.83;;;;;;;;;;7364957;19;20046;-74
2023/08/12 01:34:25;;;;;;;7.28;3.90;;;;;;;;;;7365556;19;20057;-75
2023/08/12 01:36:54;;;;;;;8.00;3.78;;;;;;;;;;7361268;19;19998;-75
2023/08/12 01:39:20;;;;;;;6.60;3.72;;;;;;;;;;7367759;19;19998;-75
2023/08/12 01:41:45;;;;;;;8.18;3.63;;;;;;;;;;7355812;19;20346;-75
2023/08/12 01:44:10;;;;;;;8.82;4.00;;;;;;;;;;7367577;19;20479;-75
2023/08/12 01:46:36;;;;;;;7.88;4.28;;;;;;;;;;7363171;19;20047;-74
2023/08/12 01:49:01;;;;;;;7.33;3.87;;;;;;;;;;7366127;19;19999;-75
2023/08/12 01:51:26;;;;;;;9.37;4.20;;;;;;;;;;7358012;19;20714;-76
2023/08/12 01:53:51;;;;;;;10.27;4.97;;;;;;;;;;7366847;19;20263;-76
2023/08/12 01:56:16;;;;;;;8.07;4.18;;;;;;;;;;7323987;19;20235;-77
2023/08/12 01:58:41;;;;;;;6.90;3.72;;;;;;;;;;7296033;19;20002;-77
2023/08/12 02:01:07;;;;;;;6.97;4.07;;;;;;;;;;7287477;19;20022;-77
2023/08/12 02:03:32;;;;;;;7.20;3.70;;;;;;;;;;7291958;19;20267;-76
2023/08/12 02:05:57;;;;;;;5.28;3.40;;;;;;;;;;7296327;19;20576;-77
2023/08/12 02:08:22;;;;;;;11.30;3.60;;;;;;;;;;7297691;19;20367;-77
2023/08/12 02:10:47;;;;;;;8.47;4.30;;;;;;;;;;7289589;19;20039;-76
2023/08/12 02:13:12;;;;;;;6.10;3.45;;;;;;;;;;7292311;19;20593;-77
2023/08/12 02:15:38;;;;;;;6.87;4.03;;;;;;;;;;7294862;19;19995;-77
2023/08/12 02:18:03;;;;;;;6.82;4.18;;;;;;;;;;7296272;19;20378;-77
2023/08/12 02:20:28;;;;;;;7.80;3.90;;;;;;;;;;7292271;19;20509;-77
2023/08/12 02:22:53;;;;;;;6.17;3.70;;;;;;;;;;7294050;19;20399;-76
2023/08/12 02:25:18;;;;;;;7.07;3.60;;;;;;;;;;7296891;19;20228;-76
2023/08/12 02:27:44;;;;;;;6.60;3.83;;;;;;;;;;7290357;19;19995;-77
2023/08/12 02:30:10;;;;;;;7.83;4.10;;;;;;;;;;7297043;19;19999;-77
2023/08/12 02:32:35;;;;;;;7.32;3.60;;;;;;;;;;7293475;19;19999;-77
2023/08/12 02:35:00;;;;;;;5.10;2.97;;;;;;;;;;7296320;19;20467;-77
2023/08/12 02:37:25;;;;;;;7.13;3.20;;;;;;;;;;7295441;19;19998;-77
2023/08/12 02:39:51;;;;;;;6.97;3.47;;;;;;;;;;7297799;19;20346;-77
2023/08/12 02:42:16;;;;;;;5.97;3.13;;;;;;;;;;7291124;19;20229;-76
2023/08/12 02:44:41;;;;;;;6.25;3.25;;;;;;;;;;7290894;19;20357;-77
2023/08/12 02:47:06;;;;;;;6.00;2.90;;;;;;;;;;7294939;19;20014;-78
2023/08/12 02:49:32;;;;;;;6.80;3.43;;;;;;;;;;7292674;19;19999;-78
2023/08/12 02:51:57;;;;;;;8.13;3.40;;;;;;;;;;7291878;19;20826;-77
2023/08/12 02:54:22;;;;;;;8.67;3.10;;;;;;;;;;7295987;19;20006;-77
2023/08/12 02:56:47;;;;;;;7.50;3.33;;;;;;;;;;7340790;19;20616;-75
2023/08/12 02:59:12;;;;;;;7.50;2.57;;;;;;;;;;7361644;19;20592;-76
2023/08/12 03:01:39;;;;;;;8.77;3.67;;;;;;;;;;7355938;19;20235;-77
2023/08/12 03:04:05;;;;;;;5.55;3.05;;;;;;;;;;7355698;19;20009;-75
2023/08/12 03:06:30;;;;;;;7.20;3.13;;;;;;;;;;7364939;19;20291;-75
2023/08/12 03:08:55;;;;;;;8.20;3.00;;;;;;;;;;7361316;19;20009;-74
2023/08/12 03:11:20;;;;;;;9.93;3.50;;;;;;;;;;7349253;19;20089;-75
2023/08/12 03:13:45;;;;;;;6.77;3.13;;;;;;;;;;7362397;19;20014;-76
2023/08/12 03:16:12;;;;;;;6.83;2.97;;;;;;;;;;7364649;19;20228;-76
2023/08/12 03:18:38;;;;;;;6.72;3.47;;;;;;;;;;7362849;19;20423;-76
2023/08/12 03:21:09;;;;;;;6.30;3.60;;;;;;;;;;7361257;19;19999;-74
2023/08/12 03:23:35;;;;;;;7.40;3.30;;;;;;;;;;7361396;19;19999;-76
2023/08/12 03:26:00;;;;;;;7.70;3.53;;;;;;;;;;7354831;19;20323;-77
2023/08/12 03:28:25;;;;;;;5.90;3.17;;;;;;;;;;7366332;19;19991;-75
2023/08/12 03:30:52;;;;;;;6.13;3.33;;;;;;;;;;7362036;19;20005;-75
2023/08/12 03:33:17;;;;;;;6.93;3.00;;;;;;;;;;7367954;19;20010;-75
2023/08/12 03:35:44;;;;;;;6.57;3.17;;;;;;;;;;7364366;19;20297;-76
2023/08/12 03:38:10;;;;;;;5.63;2.88;;;;;;;;;;7372209;19;20242;-76
2023/08/12 03:40:37;;;;;;;8.40;3.38;;;;;;;;;;7367012;19;20077;-76
2023/08/12 03:43:02;;;;;;;5.72;3.20;;;;;;;;;;7371799;19;20483;-78
2023/08/12 03:45:28;;;;;;;10.73;3.47;;;;;;;;;;7374144;19;20011;-78
2023/08/12 03:47:53;;;;;;;8.65;4.03;;;;;;;;;;7370157;19;20541;-78
2023/08/12 03:50:18;;;;;;;8.53;3.80;;;;;;;;;;7371683;19;20483;-77
2023/08/12 03:52:43;;;;;;;8.60;4.05;;;;;;;;;;7372388;19;20274;-77
2023/08/12 03:55:08;;;;;;;7.57;3.30;;;;;;;;;;7368108;19;20514;-76
2023/08/12 03:57:34;;;;;;;7.30;3.35;;;;;;;;;;7367778;19;20006;-79
2023/08/12 03:59:59;;;;;;;6.13;3.00;;;;;;;;;;7370827;19;20424;-77
2023/08/12 04:02:24;;;;;;;5.78;3.25;;;;;;;;;;7362816;19;20122;-77
2023/08/12 04:04:49;;;;;;;6.13;3.20;;;;;;;;;;7363528;19;20075;-78
2023/08/12 04:07:14;;;;;;;7.30;3.33;;;;;;;;;;7370918;19;20002;-78
2023/08/12 04:09:40;;;;;;;5.97;3.40;;;;;;;;;;7365716;19;20318;-78
2023/08/12 04:12:05;;;;;;;7.67;3.50;;;;;;;;;;7363431;19;20010;-77
2023/08/12 04:14:30;;;;;;;8.27;3.97;;;;;;;;;;7369955;19;20332;-77
2023/08/12 04:16:55;;;;;;;7.80;4.47;;;;;;;;;;7367253;19;19998;-78
2023/08/12 04:19:20;;;;;;;8.67;5.00;;;;;;;;;;7367314;19;20450;-77
2023/08/12 04:21:46;;;;;;;6.90;4.00;;;;;;;;;;7366111;19;20010;-77
2023/08/12 04:24:11;;;;;;;11.52;5.18;;;;;;;;;;7371508;19;20555;-77
2023/08/12 04:26:36;;;;;;;10.93;4.80;;;;;;;;;;7368973;19;19995;-78
2023/08/12 04:29:02;;;;;;;9.17;5.60;;;;;;;;;;7368759;19;20084;-78
2023/08/12 04:31:27;;;;;;;10.30;5.70;;;;;;;;;;7370232;19;20010;-77
2023/08/12 04:33:52;;;;;;;10.13;5.40;;;;;;;;;;7368820;19;20267;-78
2023/08/12 04:36:17;;;;;;;9.20;5.97;;;;;;;;;;7372477;19;20002;-77
2023/08/12 04:38:43;;;;;;;13.70;6.77;;;;;;;;;;7369443;19;20264;-79
2023/08/12 04:41:08;;;;;;;8.40;5.97;;;;;;;;;;7366767;19;20121;-77
2023/08/12 04:43:33;;;;;;;9.95;5.05;;;;;;;;;;7372385;19;20382;-79
2023/08/12 04:45:58;;;;;;;9.90;5.13;;;;;;;;;;7367579;19;20010;-78
2023/08/12 04:48:23;;;;;;;10.87;5.00;;;;;;;;;;7368845;19;20564;-78
2023/08/12 04:50:48;;;;;;;11.57;5.80;;;;;;;;;;7367350;19;20287;-78
2023/08/12 04:53:14;;;;;;;8.57;4.90;;;;;;;;;;7371264;19;20006;-78
2023/08/12 04:55:39;;;;;;;11.37;5.33;;;;;;;;;;7365538;19;20243;-78
2023/08/12 04:58:04;;;;;;;10.43;5.27;;;;;;;;;;7370239;19;20029;-79
2023/08/12 05:00:29;;;;;;;8.32;4.80;;;;;;;;;;7368685;19;20119;-78
2023/08/12 05:02:55;;;;;;;8.00;4.18;;;;;;;;;;7359955;19;20325;-78
2023/08/12 05:05:20;;;;;;;6.05;3.65;;;;;;;;;;7367465;19;19995;-78
2023/08/12 05:07:48;;;;;;;19.00;4.20;;;;;;;;;;7367334;19;20376;-78
2023/08/12 05:10:14;;;;;;;216.10;11.02;;;;;;;;;;7365331;19;20007;-77
2023/08/12 05:12:39;;;;;;;82.50;5.03;;;;;;;;;;7367013;19;20002;-78
2023/08/12 05:15:04;;;;;;;14.60;3.70;;;;;;;;;;7365878;19;20028;-77
2023/08/12 05:17:30;;;;;;;55.80;5.45;;;;;;;;;;7370261;19;20002;-77
2023/08/12 05:19:55;;;;;;;6.03;3.35;;;;;;;;;;7370810;19;20432;-77
2023/08/12 05:22:20;;;;;;;6.85;3.25;;;;;;;;;;7371782;19;19995;-78
2023/08/12 05:24:45;;;;;;;5.43;3.08;;;;;;;;;;7368722;19;20082;-78
2023/08/12 05:27:10;;;;;;;8.17;4.27;;;;;;;;;;7368265;19;20424;-78
2023/08/12 05:29:35;;;;;;;5.90;3.57;;;;;;;;;;7367118;19;20255;-78
2023/08/12 05:32:00;;;;;;;7.67;3.77;;;;;;;;;;7369630;19;19991;-77
2023/08/12 05:34:26;;;;;;;7.63;4.30;;;;;;;;;;7364914;19;19998;-77
2023/08/12 05:36:52;;;;;;;6.82;4.00;;;;;;;;;;7363831;19;20014;-77
2023/08/12 05:39:18;;;;;;;16.40;4.27;;;;;;;;;;7368454;19;19990;-77
2023/08/12 05:41:43;;;;;;;118.65;8.27;;;;;;;;;;7363426;19;20260;-78
2023/08/12 05:44:08;;;;;;;9.73;3.53;;;;;;;;;;7363914;19;20019;-77
2023/08/12 05:46:33;;;;;;;12.97;4.20;;;;;;;;;;7366769;19;20006;-77
2023/08/12 05:48:58;;;;;;;8.98;4.32;;;;;;;;;;7365062;19;20011;-77
2023/08/12 05:51:24;;;;;;;14.93;5.17;;;;;;;;;;7367223;19;20015;-77
2023/08/12 05:53:49;;;;;;;8.20;4.43;;;;;;;;;;7371184;19;20838;-77
2023/08/12 05:56:14;;;;;;;6.07;3.70;;;;;;;;;;7364467;19;19990;-77
2023/08/12 05:58:39;;;;;;;6.20;3.80;;;;;;;;;;7370743;19;20676;-76
2023/08/12 06:01:04;;;;;;;7.23;4.80;;;;;;;;;;7367709;19;20369;-77
2023/08/12 06:03:30;;;;;;;5.72;3.80;;;;;;;;;;7375299;19;20017;-76
2023/08/12 06:05:55;;;;;;;7.30;4.53;;;;;;;;;;7365900;19;20012;-77
2023/08/12 06:08:20;;;;;;;7.78;4.50;;;;;;;;;;7371387;19;20027;-76
2023/08/12 06:10:45;;;;;;;9.02;4.82;;;;;;;;;;7362420;19;19999;-77
2023/08/12 06:13:10;;;;;;;7.63;4.03;;;;;;;;;;7363707;19;19998;-76
2023/08/12 06:15:36;;;;;;;7.67;4.97;;;;;;;;;;7360969;19;20443;-75
2023/08/12 06:18:01;;;;;;;8.13;4.35;;;;;;;;;;7359235;19;20001;-75
2023/08/12 06:20:26;;;;;;;11.52;4.68;;;;;;;;;;7365407;19;20040;-76
2023/08/12 06:22:51;;;;;;;11.10;5.23;;;;;;;;;;7357804;19;20043;-74
2023/08/12 06:25:17;;;;;;;8.10;4.25;;;;;;;;;;7355355;19;19998;-75
2023/08/12 06:27:43;;;;;;;7.43;4.50;;;;;;;;;;7359730;19;20007;-74
2023/08/12 06:30:08;;;;;;;8.20;4.68;;;;;;;;;;7358492;19;20003;-74
2023/08/12 06:32:34;;;;;;;8.10;4.25;;;;;;;;;;7364136;19;20019;-75
2023/08/12 06:34:59;;;;;;;9.95;4.25;;;;;;;;;;7359269;19;20338;-74
2023/08/12 06:37:24;;;;;;;10.10;5.00;;;;;;;;;;7362718;19;20027;-74
2023/08/12 06:39:50;;;;;;;7.90;4.50;;;;;;;;;;7335306;19;20408;-73
2023/08/12 06:42:15;;;;;;;7.70;4.88;;;;;;;;;;7352626;19;20263;-74
2023/08/12 06:44:40;;;;;;;7.80;4.10;;;;;;;;;;7360979;19;20129;-73
2023/08/12 06:47:06;;;;;;;7.93;3.63;;;;;;;;;;7357031;19;20787;-75
2023/08/12 06:49:31;;;;;;;8.50;3.50;;;;;;;;;;7357486;19;20235;-74
2023/08/12 06:51:56;;;;;;;8.52;3.80;;;;;;;;;;7353691;19;20034;-74
2023/08/12 06:54:22;;;;;;;7.40;3.27;;;;;;;;;;7356016;19;20423;-74
2023/08/12 06:56:48;;;;;;;10.48;3.50;;;;;;;;;;7353097;19;20275;-76
2023/08/12 06:59:13;;;;;;;10.70;3.42;;;;;;;;;;7358144;19;20348;-76
2023/08/12 07:01:38;;;;;;;6.80;3.30;;;;;;;;;;7353841;19;20550;-76
2023/08/12 07:04:03;;;;;;;7.63;3.77;;;;;;;;;;7355234;19;20251;-76
2023/08/12 07:06:28;;;;;;;6.30;3.33;;;;;;;;;;7366796;19;20272;-76
2023/08/12 07:08:54;;;;;;;10.10;3.10;;;;;;;;;;7357474;19;19998;-75
2023/08/12 07:11:19;;;;;;;7.97;3.70;;;;;;;;;;7359090;19;20015;-76
2023/08/12 07:13:46;;;;;;;8.30;3.23;;;;;;;;;;7368209;19;20339;-76
2023/08/12 07:16:11;;;;;;;9.05;3.38;;;;;;;;;;7354920;19;20904;-76
2023/08/12 07:18:36;;;;;;;7.70;3.17;;;;;;;;;;7371313;19;19998;-75
2023/08/12 07:21:01;;;;;;;9.90;4.00;;;;;;;;;;7366041;19;20498;-75
2023/08/12 07:23:27;;;;;;;9.07;4.03;;;;;;;;;;7369938;19;20278;-75
2023/08/12 07:25:52;;;;;;;9.40;3.90;;;;;;;;;;7362844;19;20243;-75
2023/08/12 07:28:17;;;;;;;10.07;4.13;;;;;;;;;;7366790;19;20075;-75
2023/08/12 07:30:42;;;;;;;7.70;4.60;;;;;;;;;;7370556;19;20299;-74
2023/08/12 07:33:07;;;;;;;11.00;4.97;;;;;;;;;;7359480;19;20443;-74
2023/08/12 07:35:33;;;;;;;7.80;4.50;;;;;;;;;;7362632;19;20896;-75
2023/08/12 07:37:58;;;;;;;8.27;3.88;;;;;;;;;;7364782;19;20345;-75
2023/08/12 07:40:23;;;;;;;9.95;4.43;;;;;;;;;;7362973;19;20314;-74
2023/08/12 07:42:49;;;;;;;8.10;3.87;;;;;;;;;;7360840;19;19994;-74
2023/08/12 07:45:14;;;;;;;8.57;4.43;;;;;;;;;;7366744;19;20249;-75
2023/08/12 07:47:39;;;;;;;8.57;4.20;;;;;;;;;;7369848;19;20392;-74
2023/08/12 07:50:05;;;;;;;9.80;4.27;;;;;;;;;;7360721;19;20896;-74
2023/08/12 07:52:30;;;;;;;9.90;4.15;;;;;;;;;;7366495;19;20755;-75
2023/08/12 07:54:55;;;;;;;9.00;4.63;;;;;;;;;;7366752;19;20456;-74
2023/08/12 07:57:23;;;;;;;9.10;4.43;;;;;;;;;;7359579;19;20770;-74
2023/08/12 07:59:49;;;;;;;8.32;4.45;;;;;;;;;;7367885;19;20230;-74
2023/08/12 08:02:14;;;;;;;8.90;4.53;;;;;;;;;;7358951;19;20010;-74
2023/08/12 08:04:39;;;;;;;7.80;4.47;;;;;;;;;;7360649;19;20263;-74
2023/08/12 08:07:04;;;;;;;9.30;4.17;;;;;;;;;;7360193;19;20134;-73
2023/08/12 08:09:29;;;;;;;8.75;3.92;;;;;;;;;;7362216;19;20055;-75
2023/08/12 08:11:55;;;;;;;6.83;3.43;;;;;;;;;;7360924;19;20361;-74
2023/08/12 08:14:20;;;;;;;7.40;3.80;;;;;;;;;;7369372;19;20655;-74
2023/08/12 08:16:45;;;;;;;11.00;3.73;;;;;;;;;;7364791;19;20003;-75
2023/08/12 08:19:10;;;;;;;8.47;3.80;;;;;;;;;;7363534;19;20450;-74
2023/08/12 08:21:36;;;;;;;11.23;4.30;;;;;;;;;;7362815;19;20293;-74
2023/08/12 08:24:01;;;;;;;14.25;4.05;;;;;;;;;;7363601;19;20252;-74
2023/08/12 08:26:26;;;;;;;9.63;3.50;;;;;;;;;;7363239;19;19994;-74
2023/08/12 08:28:51;;;;;;;8.18;3.80;;;;;;;;;;7362338;19;20336;-74
2023/08/12 08:31:17;;;;;;;7.65;3.67;;;;;;;;;;7362219;19;20399;-74
2023/08/12 08:33:42;;;;;;;9.30;4.17;;;;;;;;;;7360600;19;20371;-74
2023/08/12 08:36:07;;;;;;;8.73;3.70;;;;;;;;;;7359744;19;20250;-75
2023/08/12 08:38:33;;;;;;;7.50;3.53;;;;;;;;;;7366424;19;19994;-75
2023/08/12 08:40:58;;;;;;;7.57;3.83;;;;;;;;;;7360189;19;20594;-74
2023/08/12 08:43:24;;;;;;;8.50;3.55;;;;;;;;;;7364066;19;20087;-74
2023/08/12 08:45:52;;;;;;;6.75;3.03;;;;;;;;;;7365354;19;19994;-74
2023/08/12 08:48:17;;;;;;;7.85;3.20;;;;;;;;;;7361365;19;20002;-74
2023/08/12 08:50:45;;;;;;;7.40;3.05;;;;;;;;;;7359900;19;19991;-74
2023/08/12 08:53:11;;;;;;;6.00;2.85;;;;;;;;;;7362279;19;20018;-74
2023/08/12 08:55:36;;;;;;;7.28;3.13;;;;;;;;;;7359129;19;20344;-74
2023/08/12 08:58:02;;;;;;;8.53;3.30;;;;;;;;;;7360979;19;19998;-74
2023/08/12 09:00:27;;;;;;;7.72;2.70;;;;;;;;;;7366584;19;20018;-74
2023/08/12 09:02:53;;;;;;;7.95;2.78;;;;;;;;;;7358167;19;20018;-74
2023/08/12 09:05:20;;;;;;;5.82;2.80;;;;;;;;;;7356440;19;20027;-74
2023/08/12 09:07:45;;;;;;;5.80;2.40;;;;;;;;;;7361697;19;20030;-74
2023/08/12 09:10:11;;;;;;;6.70;2.60;;;;;;;;;;7353716;19;20016;-74
2023/08/12 09:12:37;;;;;;;5.18;2.25;;;;;;;;;;7359965;19;20487;-74
2023/08/12 09:15:02;;;;;;;8.90;3.22;;;;;;;;;;7364093;19;19994;-75
2023/08/12 09:17:27;;;;;;;4.85;2.10;;;;;;;;;;7361714;19;20002;-75
2023/08/12 09:19:52;;;;;;;6.27;2.50;;;;;;;;;;7361508;19;20007;-74
2023/08/12 09:22:18;;;;;;;6.33;2.67;;;;;;;;;;7358450;19;20248;-74
2023/08/12 09:24:43;;;;;;;6.55;2.70;;;;;;;;;;7365763;19;20695;-74
2023/08/12 09:27:08;;;;;;;8.17;2.77;;;;;;;;;;7357532;19;20095;-74
2023/08/12 09:29:34;;;;;;;6.27;2.93;;;;;;;;;;7364010;19;20232;-74
2023/08/12 09:32:25;;;;;;;5.25;2.40;;;;;;;;;;7358868;19;19995;-74
2023/08/12 09:34:51;;;;;;;9.90;3.20;;;;;;;;;;7358431;19;20364;-73
2023/08/12 09:37:17;;;;;;;6.10;2.78;;;;;;;;;;7359942;19;19998;-74
2023/08/12 09:39:42;;;;;;;7.97;3.15;;;;;;;;;;7361266;19;20018;-74
2023/08/12 09:42:07;;;;;;;5.20;2.72;;;;;;;;;;7355635;19;20007;-74
2023/08/12 09:44:39;;;;;;;7.73;3.00;;;;;;;;;;7362391;19;20443;-74
2023/08/12 09:47:05;;;;;;;7.15;2.50;;;;;;;;;;7358509;19;20250;-74
2023/08/12 09:49:31;;;;;;;6.00;2.80;;;;;;;;;;7355192;19;20022;-75
2023/08/12 09:51:56;;;;;;;6.67;2.47;;;;;;;;;;7360172;19;19999;-74
2023/08/12 09:54:24;;;;;;;5.63;2.75;;;;;;;;;;7362533;19;20281;-74
2023/08/12 09:56:52;;;;;;;7.05;2.97;;;;;;;;;;7359491;19;20020;-76
2023/08/12 09:59:22;;;;;;;5.78;2.25;;;;;;;;;;7360055;19;20007;-74
2023/08/12 10:01:48;;;;;;;6.85;2.67;;;;;;;;;;7357068;19;20360;-74
2023/08/12 10:04:14;;;;;;;5.97;2.90;;;;;;;;;;7357560;19;20002;-74
2023/08/12 10:06:40;;;;;;;4.90;2.50;;;;;;;;;;7362597;19;20125;-74
2023/08/12 10:09:08;;;;;;;7.38;2.70;;;;;;;;;;7357176;19;20138;-74
2023/08/12 10:11:33;;;;;;;6.18;2.58;;;;;;;;;;7355241;19;20086;-74
2023/08/12 10:14:00;;;;;;;6.38;2.80;;;;;;;;;;7361118;19;20011;-74
2023/08/12 10:16:26;;;;;;;6.68;2.78;;;;;;;;;;7360912;19;20274;-75
2023/08/12 10:18:51;;;;;;;9.73;2.40;;;;;;;;;;7358240;19;20102;-75
2023/08/12 10:21:17;;;;;;;4.97;2.50;;;;;;;;;;7358662;19;19998;-74
2023/08/12 10:23:43;;;;;;;5.70;2.72;;;;;;;;;;7364250;19;20002;-74
2023/08/12 10:26:09;;;;;;;6.05;2.67;;;;;;;;;;7350232;19;20006;-75
2023/08/12 10:28:36;;;;;;;5.18;2.33;;;;;;;;;;7347531;19;20002;-76
2023/08/12 10:31:02;;;;;;;4.88;2.38;;;;;;;;;;7348454;19;20477;-74
2023/08/12 10:33:27;;;;;;;5.40;2.58;;;;;;;;;;7350385;19;20626;-75
2023/08/12 10:35:55;;;;;;;5.13;3.20;;;;;;;;;;7358686;19;20018;-74
2023/08/12 10:38:20;;;;;;;6.43;2.83;;;;;;;;;;7354866;19;20089;-75
2023/08/12 10:40:46;;;;;;;7.15;3.38;;;;;;;;;;7345711;19;20039;-74
2023/08/12 10:43:12;;;;;;;5.97;2.95;;;;;;;;;;7352970;19;20035;-75
2023/08/12 10:45:42;;;;;;;7.15;2.97;;;;;;;;;;7350470;19;20048;-74
2023/08/12 10:48:15;;;;;;;7.72;3.00;;;;;;;;;;7355002;19;20009;-74
2023/08/12 10:50:43;;;;;;;8.10;3.13;;;;;;;;;;7350318;19;20418;-75
2023/08/12 10:53:23;;;;;;;5.57;2.60;;;;;;;;;;7361033;19;20011;-75
2023/08/12 10:55:49;;;;;;;5.57;3.10;;;;;;;;;;7356160;19;20007;-74
2023/08/12 10:58:24;;;;;;;4.90;2.72;;;;;;;;;;7347287;19;20544;-74
2023/08/12 11:00:54;;;;;;;5.32;2.30;;;;;;;;;;7352268;19;20013;-75
2023/08/12 11:03:19;;;;;;;5.18;2.10;;;;;;;;;;7358261;19;19998;-75
2023/08/12 11:05:44;;;;;;;7.07;2.90;;;;;;;;;;7362972;19;20455;-74
2023/08/12 11:08:12;;;;;;;6.22;2.50;;;;;;;;;;7359363;19;20371;-75
2023/08/12 11:10:38;;;;;;;5.22;2.55;;;;;;;;;;7341943;19;20051;-76
2023/08/12 11:13:03;;;;;;;5.28;2.22;;;;;;;;;;7341743;19;20340;-77
2023/08/12 11:15:33;;;;;;;6.28;2.65;;;;;;;;;;7340018;19;19998;-77
2023/08/12 11:17:58;;;;;;;5.38;2.17;;;;;;;;;;7342370;19;20013;-75
2023/08/12 11:20:24;;;;;;;6.40;2.35;;;;;;;;;;7342746;19;20800;-76
2023/08/12 11:22:50;;;;;;;6.05;1.67;;;;;;;;;;7356788;19;20609;-76
2023/08/12 11:25:15;;;;;;;7.30;2.17;;;;;;;;;;7355811;19;20081;-74
2023/08/12 11:27:44;;;;;;;5.88;1.83;;;;;;;;;;7362632;19;20094;-76
2023/08/12 11:30:12;;;;;;;4.82;1.90;;;;;;;;;;7361834;19;19999;-76
2023/08/12 11:32:38;;;;;;;5.88;1.98;;;;;;;;;;7350748;19;20016;-73
2023/08/12 11:35:03;;;;;;;5.13;2.13;;;;;;;;;;7341714;19;20362;-77
2023/08/12 11:37:29;;;;;;;3.97;1.73;;;;;;;;;;7354154;19;20007;-73
2023/08/12 11:39:54;;;;;;;5.55;1.90;;;;;;;;;;7361747;19;20006;-74
2023/08/12 11:42:19;;;;;;;5.95;1.70;;;;;;;;;;7349309;19;20455;-76
2023/08/12 11:44:44;;;;;;;5.20;1.70;;;;;;;;;;7362777;19;20098;-76
2023/08/12 11:47:09;;;;;;;7.00;2.10;;;;;;;;;;7358081;19;20605;-76
2023/08/12 11:52:38;;;;;;;4.57;2.00;;;;;;;;;;7328685;19;20003;-76
2023/08/12 11:55:03;;;;;;;4.95;1.92;;;;;;;;;;7350694;19;20554;-76
2023/08/12 11:57:29;;;;;;;6.47;1.80;;;;;;;;;;7357766;19;19999;-75
2023/08/12 12:00:08;;;;;;;6.55;1.83;;;;;;;;;;7369095;19;20022;-76
2023/08/12 12:02:36;;;;;;;4.75;1.50;;;;;;;;;;7357811;19;20306;-75
2023/08/12 12:05:04;;;;;;;3.95;1.60;;;;;;;;;;7361859;19;20106;-77
2023/08/12 12:07:31;;;;;;;3.90;1.40;;;;;;;;;;7349764;19;20007;-75
2023/08/12 12:09:56;;;;;;;5.15;1.70;;;;;;;;;;7367742;19;20018;-76
2023/08/12 12:12:23;;;;;;;4.57;1.90;;;;;;;;;;7369565;19;20172;-75
2023/08/12 12:14:48;;;;;;;3.65;1.45;;;;;;;;;;7366045;19;20789;-76
2023/08/12 12:17:14;;;;;;;4.90;1.67;;;;;;;;;;7368735;19;19995;-76
2023/08/12 12:19:40;;;;;;;4.53;1.70;;;;;;;;;;7365730;19;20082;-76
2023/08/12 12:22:05;;;;;;;6.20;1.80;;;;;;;;;;7356413;19;20446;-75
2023/08/12 12:24:30;;;;;;;4.55;1.73;;;;;;;;;;7367199;19;20009;-75
2023/08/12 12:26:56;;;;;;;5.65;1.88;;;;;;;;;;7367825;19;20080;-76
2023/08/12 12:29:21;;;;;;;5.93;1.50;;;;;;;;;;7366463;19;20098;-76
2023/08/12 12:31:46;;;;;;;6.22;2.15;;;;;;;;;;7369809;19;19998;-76
2023/08/12 12:34:14;;;;;;;5.20;2.03;;;;;;;;;;7359136;19;20018;-75
2023/08/12 12:36:39;;;;;;;5.75;1.77;;;;;;;;;;7356477;19;20015;-77
2023/08/12 12:39:04;;;;;;;4.15;1.80;;;;;;;;;;7356325;19;20340;-75
2023/08/12 12:41:30;;;;;;;5.67;1.80;;;;;;;;;;7357279;19;19999;-75
2023/08/12 12:43:55;;;;;;;4.85;1.90;;;;;;;;;;7363583;19;20057;-75
2023/08/12 12:46:20;;;;;;;7.37;2.37;;;;;;;;;;7361070;19;19995;-75
2023/08/12 12:48:46;;;;;;;6.82;2.15;;;;;;;;;;7368296;19;20001;-76
2023/08/12 12:51:12;;;;;;;4.40;1.90;;;;;;;;;;7347077;19;20024;-76
2023/08/12 12:53:37;;;;;;;5.07;1.90;;;;;;;;;;7280809;19;20796;-75
2023/08/12 12:56:03;;;;;;;5.47;1.70;;;;;;;;;;7283324;19;20544;-75
2023/08/12 12:58:33;;;;;;;5.63;1.98;;;;;;;;;;7279434;19;20254;-75
2023/08/12 13:00:58;;;;;;;4.63;1.77;;;;;;;;;;7279711;19;20128;-74
2023/08/12 13:03:23;;;;;;;5.40;1.80;;;;;;;;;;7277347;19;20559;-74
2023/08/12 13:05:49;;;;;;;5.23;2.03;;;;;;;;;;7281060;19;20524;-75
2023/08/12 13:08:14;;;;;;;4.90;1.67;;;;;;;;;;7276775;19;20296;-74
2023/08/12 13:10:39;;;;;;;4.70;1.53;;;;;;;;;;7280861;19;20755;-75
2023/08/12 13:13:05;;;;;;;5.20;1.60;;;;;;;;;;7279473;19;20728;-75
2023/08/12 13:15:30;;;;;;;4.30;1.43;;;;;;;;;;7287352;19;20038;-75
2023/08/12 13:17:55;;;;;;;4.40;1.40;;;;;;;;;;7289632;19;20115;-76
2023/08/12 13:20:21;;;;;;;4.60;1.40;;;;;;;;;;7280022;19;20367;-74
2023/08/12 13:22:46;;;;;;;4.47;1.60;;;;;;;;;;7283695;19;20446;-75
2023/08/12 13:25:12;;;;;;;4.70;1.40;;;;;;;;;;7284966;19;20501;-75
2023/08/12 13:27:37;;;;;;;3.88;1.30;;;;;;;;;;7278358;19;20739;-75
2023/08/12 13:30:04;;;;;;;3.97;1.40;;;;;;;;;;7291820;19;20045;-74
2023/08/12 13:32:29;;;;;;;7.22;1.20;;;;;;;;;;7286555;19;20347;-75
2023/08/12 13:34:54;;;;;;;5.23;1.63;;;;;;;;;;7287931;19;20540;-75
2023/08/12 13:37:19;;;;;;;3.87;1.40;;;;;;;;;;7282564;19;20267;-75
2023/08/12 13:39:45;;;;;;;6.03;1.60;;;;;;;;;;7287693;19;20291;-75
2023/08/12 13:42:10;;;;;;;3.30;1.30;;;;;;;;;;7283059;19;20090;-74
2023/08/12 13:44:35;;;;;;;5.43;1.70;;;;;;;;;;7281898;19;20659;-75
2023/08/12 13:47:00;;;;;;;5.87;1.60;;;;;;;;;;7286893;19;20252;-75
2023/08/12 13:49:25;;;;;;;5.80;1.53;;;;;;;;;;7286604;19;20355;-79
2023/08/12 13:51:50;;;;;;;3.63;1.17;;;;;;;;;;7317267;19;20260;-77
2023/08/12 13:54:16;;;;;;;4.43;1.60;;;;;;;;;;7368649;19;19995;-78
2023/08/12 13:56:41;;;;;;;5.60;1.60;;;;;;;;;;7367770;19;20019;-76
2023/08/12 13:59:06;;;;;;;4.33;1.50;;;;;;;;;;7367818;19;20015;-78
2023/08/12 14:01:31;;;;;;;5.27;1.70;;;;;;;;;;7352910;19;21129;-74
2023/08/12 14:03:57;;;;;;;4.93;1.73;;;;;;;;;;7366390;19;20013;-76
2023/08/12 14:06:22;;;;;;;5.45;2.05;;;;;;;;;;7356690;19;20080;-76
2023/08/12 14:08:47;;;;;;;4.90;1.70;;;;;;;;;;7368035;19;20074;-75
2023/08/12 14:11:12;;;;;;;5.97;1.80;;;;;;;;;;7367473;19;20231;-76
2023/08/12 14:13:37;;;;;;;6.25;1.90;;;;;;;;;;7359836;19;20026;-76
2023/08/12 14:16:03;;;;;;;4.97;1.50;;;;;;;;;;7367425;19;20096;-76
2023/08/12 14:18:28;;;;;;;5.53;1.60;;;;;;;;;;7365633;19;20107;-76
2023/08/12 14:20:53;;;;;;;4.50;1.50;;;;;;;;;;7361647;19;20051;-76
2023/08/12 14:23:18;;;;;;;4.60;1.40;;;;;;;;;;7364041;19;20593;-76
2023/08/12 14:25:43;;;;;;;4.87;1.57;;;;;;;;;;7363934;19;20010;-75
2023/08/12 14:28:08;;;;;;;3.17;1.27;;;;;;;;;;7362010;19;20558;-76
2023/08/12 14:30:34;;;;;;;4.87;1.60;;;;;;;;;;7360807;19;20002;-76
2023/08/12 14:32:59;;;;;;;8.27;1.57;;;;;;;;;;7356547;19;20260;-75
2023/08/12 14:35:25;;;;;;;4.73;1.70;;;;;;;;;;7363150;19;20243;-75